Time;durP1;ratioP1;P1;durP2;ratioP2;P2;SDS_P1;SDS_P2;PMS_P1;PMS_P2;Temp;Humidity;BMP_temperature;BMP_pressure;BME280_temperature;BME280_humidity;BME280_pressure;Samples;Min_cycle;Max_cycle;Signal;HPM_P1;HPM_P2
2023/05/12 00:00:57;;;;;;;52.58;37.60;;;13.60;99.90;;;;;;5052337;28;20422;-62
2023/05/12 00:03:24;;;;;;;50.13;36.38;;;13.60;99.90;;;;;;5052003;28;20891;-63
2023/05/12 00:05:51;;;;;;;46.30;35.42;;;13.60;99.90;;;;;;5052210;28;20416;-63
2023/05/12 00:08:18;;;;;;;51.30;37.03;;;13.60;99.90;;;;;;5052378;28;20938;-63
2023/05/12 00:10:46;;;;;;;52.28;37.47;;;13.50;99.90;;;;;;5052112;28;20791;-63
2023/05/12 00:13:13;;;;;;;48.50;35.63;;;13.50;99.90;;;;;;5051845;28;20416;-63
2023/05/12 00:15:40;;;;;;;49.30;35.47;;;13.50;99.90;;;;;;5052102;28;20423;-63
2023/05/12 00:18:06;;;;;;;51.13;35.90;;;13.50;99.90;;;;;;5051631;28;20417;-63
2023/05/12 00:20:33;;;;;;;51.67;36.23;;;13.50;99.90;;;;;;5052403;28;20413;-63
2023/05/12 00:23:00;;;;;;;45.80;35.80;;;13.40;99.90;;;;;;5052004;28;20421;-63
2023/05/12 00:25:27;;;;;;;46.75;34.35;;;13.40;99.90;;;;;;5052141;28;20421;-62
2023/05/12 00:27:55;;;;;;;44.85;34.22;;;13.40;99.90;;;;;;5055245;28;20401;-63
2023/05/12 00:30:22;;;;;;;46.17;35.30;;;13.40;99.90;;;;;;5056601;28;20420;-63
2023/05/12 00:32:49;;;;;;;44.58;34.67;;;13.40;99.90;;;;;;5055597;28;20421;-63
2023/05/12 00:35:16;;;;;;;48.20;35.17;;;13.40;99.90;;;;;;5055872;28;20413;-62
2023/05/12 00:37:43;;;;;;;43.95;34.30;;;13.40;99.90;;;;;;5055899;28;20428;-64
2023/05/12 00:40:11;;;;;;;43.25;34.50;;;13.40;99.90;;;;;;5055877;28;20420;-63
2023/05/12 00:42:37;;;;;;;45.72;34.67;;;13.40;99.90;;;;;;5057139;28;20413;-63
2023/05/12 00:45:07;;;;;;;45.00;34.53;;;13.40;99.90;;;;;;5056435;28;20424;-62
2023/05/12 00:47:34;;;;;;;44.55;35.03;;;13.40;99.90;;;;;;5056489;28;20417;-63
2023/05/12 00:50:03;;;;;;;45.87;33.73;;;13.40;99.90;;;;;;5056010;28;20918;-63
2023/05/12 00:52:30;;;;;;;44.13;34.22;;;13.40;99.90;;;;;;5056119;28;20457;-63
2023/05/12 00:54:58;;;;;;;43.60;34.10;;;13.40;99.90;;;;;;5055899;28;20417;-63
2023/05/12 00:57:26;;;;;;;41.88;32.05;;;13.30;99.90;;;;;;5055814;28;20425;-63
2023/05/12 00:59:53;;;;;;;44.60;33.70;;;13.40;99.90;;;;;;5055970;28;20417;-62
2023/05/12 01:02:21;;;;;;;41.63;33.10;;;13.40;99.90;;;;;;5055267;28;20783;-63
2023/05/12 01:04:49;;;;;;;42.77;33.37;;;13.40;99.90;;;;;;5055314;28;20420;-62
2023/05/12 01:07:20;;;;;;;43.00;32.78;;;13.40;99.90;;;;;;5055300;28;20416;-62
2023/05/12 01:09:47;;;;;;;44.78;34.17;;;13.40;99.90;;;;;;5055363;28;20418;-62
2023/05/12 01:12:14;;;;;;;47.83;35.17;;;13.30;99.90;;;;;;5055252;28;20417;-62
2023/05/12 01:14:41;;;;;;;45.67;34.33;;;13.30;99.90;;;;;;5055651;28;20417;-62
2023/05/12 01:17:12;;;;;;;47.17;34.35;;;13.30;99.90;;;;;;5055561;28;20555;-62
2023/05/12 01:19:48;;;;;;;43.75;32.28;;;13.30;99.90;;;;;;5055229;28;20417;-62
2023/05/12 01:22:16;;;;;;;45.13;33.17;;;13.40;99.90;;;;;;5055203;28;20417;-62
2023/05/12 01:24:47;;;;;;;44.30;32.83;;;13.30;99.90;;;;;;5054733;28;20945;-63
2023/05/12 01:27:17;;;;;;;46.00;33.30;;;13.40;99.90;;;;;;5055064;28;20426;-62
2023/05/12 01:29:45;;;;;;;45.07;34.63;;;13.40;99.90;;;;;;5055965;28;20783;-63
2023/05/12 01:32:13;;;;;;;47.35;33.60;;;13.30;99.90;;;;;;5054471;28;20479;-63
2023/05/12 01:34:41;;;;;;;43.60;32.65;;;13.30;99.90;;;;;;5054850;28;20417;-63
2023/05/12 01:37:08;;;;;;;43.63;32.85;;;13.30;99.90;;;;;;5054823;28;20439;-62
2023/05/12 01:39:35;;;;;;;42.83;31.77;;;13.30;99.90;;;;;;5054108;28;20824;-64
2023/05/12 01:42:02;;;;;;;47.15;33.90;;;13.30;99.90;;;;;;5054532;28;20895;-64
2023/05/12 01:44:30;;;;;;;42.13;31.38;;;13.30;99.90;;;;;;5054498;28;20905;-63
2023/05/12 01:46:57;;;;;;;44.20;33.00;;;13.30;99.90;;;;;;5054688;28;20421;-62
2023/05/12 01:49:23;;;;;;;48.97;34.55;;;13.30;99.90;;;;;;5054740;28;20421;-62
2023/05/12 01:51:50;;;;;;;46.22;33.97;;;13.30;99.90;;;;;;5054780;28;20429;-62
2023/05/12 01:54:17;;;;;;;47.72;34.67;;;13.30;99.90;;;;;;5055628;28;20425;-64
2023/05/12 01:56:44;;;;;;;43.55;32.00;;;13.30;99.90;;;;;;5055630;28;20448;-61
2023/05/12 01:59:11;;;;;;;46.15;33.58;;;13.30;99.90;;;;;;5054508;28;20421;-62
2023/05/12 02:01:39;;;;;;;46.67;33.75;;;13.30;99.90;;;;;;5054362;28;20421;-61
2023/05/12 02:04:07;;;;;;;43.50;33.53;;;13.30;99.90;;;;;;5054016;28;20428;-62
2023/05/12 02:06:34;;;;;;;43.87;33.20;;;13.30;99.90;;;;;;5054152;28;20915;-63
2023/05/12 02:09:01;;;;;;;43.60;33.53;;;13.30;99.90;;;;;;5056062;28;20425;-63
2023/05/12 02:11:30;;;;;;;43.38;32.88;;;13.30;99.90;;;;;;5055839;28;20892;-63
2023/05/12 02:13:57;;;;;;;43.40;33.17;;;13.20;99.90;;;;;;5056272;28;20422;-62
2023/05/12 02:16:24;;;;;;;41.72;32.28;;;13.20;99.90;;;;;;5055690;28;20421;-62
2023/05/12 02:18:52;;;;;;;42.13;32.25;;;13.20;99.90;;;;;;5055684;28;20440;-63
2023/05/12 02:21:19;;;;;;;42.25;31.50;;;13.20;99.90;;;;;;5055544;28;20421;-62
2023/05/12 02:23:46;;;;;;;41.27;31.90;;;13.20;99.90;;;;;;5056125;28;20417;-62
2023/05/12 02:26:12;;;;;;;43.25;33.92;;;13.20;99.90;;;;;;5055786;28;20420;-62
2023/05/12 02:28:39;;;;;;;45.65;32.20;;;13.20;99.90;;;;;;5054985;28;20421;-63
2023/05/12 02:31:06;;;;;;;42.97;33.22;;;13.20;99.90;;;;;;5055213;28;20418;-63
2023/05/12 02:33:33;;;;;;;43.75;32.78;;;13.10;99.90;;;;;;5055334;28;20435;-63
2023/05/12 02:36:01;;;;;;;40.92;32.40;;;13.20;99.90;;;;;;5053792;28;20412;-62
2023/05/12 02:38:28;;;;;;;42.13;32.13;;;13.10;99.90;;;;;;5053460;28;20959;-63
2023/05/12 02:40:55;;;;;;;43.28;32.10;;;13.10;99.90;;;;;;5053619;28;20417;-62
2023/05/12 02:43:21;;;;;;;41.05;32.30;;;13.10;99.90;;;;;;5053129;28;20891;-63
2023/05/12 02:45:48;;;;;;;44.17;33.10;;;13.10;99.90;;;;;;5052987;28;20922;-62
2023/05/12 02:48:15;;;;;;;43.63;31.98;;;13.10;99.90;;;;;;5053682;28;20413;-63
2023/05/12 02:50:42;;;;;;;44.25;32.13;;;13.10;99.90;;;;;;5052429;28;20440;-62
2023/05/12 02:53:10;;;;;;;40.83;31.60;;;13.10;99.90;;;;;;5053663;28;20413;-61
2023/05/12 02:55:37;;;;;;;40.15;32.08;;;13.10;99.90;;;;;;5053694;28;20432;-61
2023/05/12 02:58:04;;;;;;;38.00;31.60;;;13.10;99.90;;;;;;5053405;28;20437;-62
2023/05/12 03:00:30;;;;;;;39.15;31.40;;;13.00;99.90;;;;;;5053532;28;20413;-62
2023/05/12 03:02:57;;;;;;;38.92;29.88;;;13.00;99.90;;;;;;5053164;28;20417;-61
2023/05/12 03:05:24;;;;;;;34.22;29.63;;;13.00;99.90;;;;;;5053396;28;20417;-63
2023/05/12 03:07:51;;;;;;;35.83;28.95;;;13.00;99.90;;;;;;5053969;28;20409;-62
2023/05/12 03:10:19;;;;;;;36.80;29.67;;;13.00;99.90;;;;;;5053779;28;20424;-62
2023/05/12 03:12:45;;;;;;;34.30;28.88;;;13.00;99.90;;;;;;5053010;28;20420;-63
2023/05/12 03:15:13;;;;;;;36.08;28.75;;;13.00;99.90;;;;;;5052972;28;20439;-62
2023/05/12 03:17:39;;;;;;;37.60;30.83;;;13.00;99.90;;;;;;5052974;28;20433;-62
2023/05/12 03:20:07;;;;;;;37.67;31.27;;;13.00;99.90;;;;;;5052454;28;20409;-63
2023/05/12 03:22:34;;;;;;;38.85;30.25;;;13.00;99.90;;;;;;5052243;28;20451;-62
2023/05/12 03:25:02;;;;;;;36.15;28.85;;;13.00;99.90;;;;;;5052649;28;20410;-62
2023/05/12 03:27:31;;;;;;;34.53;30.33;;;13.00;99.90;;;;;;5052377;28;20425;-62
2023/05/12 03:29:59;;;;;;;35.70;30.45;;;13.00;99.90;;;;;;5052342;28;20424;-62
2023/05/12 03:32:26;;;;;;;36.05;29.52;;;13.00;99.90;;;;;;5051973;28;20504;-62
2023/05/12 03:34:52;;;;;;;37.33;30.20;;;13.00;99.90;;;;;;5052351;28;20771;-62
2023/05/12 03:37:19;;;;;;;35.88;29.63;;;13.00;99.90;;;;;;5052263;28;20428;-62
2023/05/12 03:39:46;;;;;;;36.95;31.10;;;13.00;99.90;;;;;;5052389;28;20421;-62
2023/05/12 03:42:13;;;;;;;36.35;30.83;;;13.00;99.90;;;;;;5051974;28;20899;-62
2023/05/12 03:44:42;;;;;;;35.63;30.13;;;13.00;99.90;;;;;;5052393;28;20432;-63
2023/05/12 03:47:09;;;;;;;35.35;30.73;;;13.00;99.90;;;;;;5052411;28;20414;-61
2023/05/12 03:49:36;;;;;;;35.15;29.88;;;13.10;99.90;;;;;;5052356;28;20413;-62
2023/05/12 03:52:02;;;;;;;34.63;29.85;;;13.10;99.90;;;;;;5054024;28;20419;-62
2023/05/12 03:54:29;;;;;;;35.53;30.40;;;13.10;99.90;;;;;;5052714;28;20417;-62
2023/05/12 03:56:56;;;;;;;33.33;28.90;;;13.10;99.90;;;;;;5053147;28;20934;-59
2023/05/12 03:59:23;;;;;;;38.25;30.67;;;13.10;99.90;;;;;;5053107;28;20417;-62
2023/05/12 04:01:53;;;;;;;37.80;30.90;;;13.10;99.90;;;;;;5052969;28;20431;-60
2023/05/12 04:04:19;;;;;;;37.67;31.10;;;13.10;99.90;;;;;;5053650;28;20444;-60
2023/05/12 04:06:46;;;;;;;36.00;30.75;;;13.10;99.90;;;;;;5053690;28;20420;-61
2023/05/12 04:11:42;;;;;;;34.97;29.70;;;13.10;99.90;;;;;;5093645;28;20679;-63
2023/05/12 04:14:08;;;;;;;36.17;32.15;;;13.10;99.90;;;;;;5093031;28;20413;-63
2023/05/12 04:16:35;;;;;;;37.47;31.25;;;13.00;99.90;;;;;;5094465;28;20422;-64
2023/05/12 04:19:02;;;;;;;36.58;32.13;;;13.00;99.90;;;;;;5096357;28;20797;-65
2023/05/12 04:21:29;;;;;;;36.88;32.78;;;13.00;99.90;;;;;;5091521;28;20484;-64
2023/05/12 04:23:56;;;;;;;38.33;32.88;;;13.10;99.90;;;;;;5092902;28;20441;-63
2023/05/12 04:26:23;;;;;;;37.92;32.08;;;13.10;99.90;;;;;;5091931;28;20415;-63
2023/05/12 04:28:51;;;;;;;39.97;32.45;;;13.10;99.90;;;;;;5092390;28;20935;-62
2023/05/12 04:33:54;;;;;;;35.70;31.80;;;13.20;99.90;;;;;;4984528;28;20427;-67
2023/05/12 04:36:21;;;;;;;37.10;32.13;;;13.20;99.90;;;;;;4986294;28;20416;-66
2023/05/12 04:38:49;;;;;;;33.83;30.17;;;13.30;99.90;;;;;;4986167;28;20430;-66
2023/05/12 04:41:15;;;;;;;34.67;30.87;;;13.30;99.90;;;;;;4985876;28;20902;-64
2023/05/12 04:43:42;;;;;;;34.00;30.27;;;13.40;99.90;;;;;;4966574;28;20788;-64
2023/05/12 04:46:10;;;;;;;32.72;29.35;;;13.40;99.90;;;;;;4966789;28;20425;-65
2023/05/12 04:48:40;;;;;;;33.28;29.77;;;13.50;99.90;;;;;;4966248;28;20433;-63
2023/05/12 04:51:07;;;;;;;32.80;29.40;;;13.50;99.90;;;;;;4966147;28;20984;-65
2023/05/12 04:53:35;;;;;;;32.83;29.53;;;13.50;99.90;;;;;;4966606;28;20523;-64
2023/05/12 04:56:01;;;;;;;33.10;29.60;;;13.50;99.90;;;;;;4966899;28;20425;-65
2023/05/12 04:58:28;;;;;;;31.50;28.20;;;13.50;99.90;;;;;;4967948;28;20425;-65
2023/05/12 05:00:55;;;;;;;32.60;29.20;;;13.60;99.90;;;;;;4966442;28;20425;-64
2023/05/12 05:03:23;;;;;;;31.48;28.17;;;13.60;99.90;;;;;;4967024;28;20430;-64
2023/05/12 05:05:50;;;;;;;31.60;28.30;;;13.70;99.90;;;;;;4967225;28;20767;-64
2023/05/12 05:08:17;;;;;;;30.40;27.20;;;13.70;99.90;;;;;;4966207;28;20429;-65
2023/05/12 05:10:44;;;;;;;29.85;26.85;;;13.80;99.90;;;;;;4966362;28;20516;-65
2023/05/12 05:13:10;;;;;;;30.55;27.45;;;13.90;99.90;;;;;;4966639;28;20421;-62
2023/05/12 05:15:37;;;;;;;28.70;25.70;;;13.90;99.90;;;;;;4966603;28;20508;-64
2023/05/12 05:18:04;;;;;;;26.70;24.00;;;14.00;99.90;;;;;;4966415;28;20926;-63
2023/05/12 05:20:33;;;;;;;26.40;23.70;;;14.10;99.90;;;;;;4967122;28;20513;-64
2023/05/12 05:23:00;;;;;;;24.98;22.58;;;14.10;99.90;;;;;;4954425;28;20520;-65
2023/05/12 05:25:26;;;;;;;25.65;23.05;;;14.20;99.90;;;;;;4954426;28;20433;-65
2023/05/12 05:27:54;;;;;;;25.60;23.00;;;14.30;99.90;;;;;;4954560;28;20486;-65
2023/05/12 05:30:21;;;;;;;25.27;22.88;;;14.30;99.90;;;;;;4953219;28;20526;-63
2023/05/12 05:32:47;;;;;;;24.58;22.25;;;14.50;99.90;;;;;;4953057;28;20433;-65
2023/05/12 05:35:14;;;;;;;25.02;22.52;;;14.50;99.90;;;;;;4952904;28;20791;-65
2023/05/12 05:37:43;;;;;;;23.77;21.58;;;14.60;99.90;;;;;;4952624;28;20907;-64
2023/05/12 05:40:10;;;;;;;23.75;21.50;;;14.70;99.90;;;;;;4953588;28;20430;-65
2023/05/12 05:42:37;;;;;;;25.55;22.80;;;14.70;99.90;;;;;;4953763;28;20422;-65
2023/05/12 05:45:05;;;;;;;24.08;21.58;;;14.80;99.90;;;;;;4953446;28;20418;-64
2023/05/12 05:47:33;;;;;;;25.05;22.45;;;14.90;99.90;;;;;;4953074;28;20435;-65
2023/05/12 05:49:59;;;;;;;24.27;21.67;;;15.00;99.90;;;;;;4953969;28;20514;-65
2023/05/12 05:52:26;;;;;;;23.52;21.23;;;15.10;99.90;;;;;;4952779;28;20896;-65
2023/05/12 05:54:54;;;;;;;23.20;21.00;;;15.10;99.90;;;;;;4954359;28;20474;-65
2023/05/12 05:57:21;;;;;;;21.00;19.00;;;15.20;99.90;;;;;;4953208;28;20418;-64
2023/05/12 05:59:48;;;;;;;20.77;18.77;;;15.30;99.90;;;;;;4952946;28;20429;-67
2023/05/12 06:02:15;;;;;;;22.27;19.63;;;15.40;99.90;;;;;;4953728;28;20465;-65
2023/05/12 06:04:42;;;;;;;20.30;18.30;;;15.40;99.90;;;;;;4954819;28;20796;-64
2023/05/12 06:07:08;;;;;;;21.90;19.77;;;15.50;99.90;;;;;;4953492;28;20908;-64
2023/05/12 06:09:35;;;;;;;21.42;19.30;;;15.60;99.90;;;;;;4953424;28;20789;-65
2023/05/12 06:12:03;;;;;;;21.08;18.95;;;15.70;99.90;;;;;;4953187;28;20434;-65
2023/05/12 06:14:30;;;;;;;17.60;15.80;;;15.80;99.90;;;;;;4953289;28;20437;-65
2023/05/12 06:16:57;;;;;;;18.27;16.50;;;15.80;99.90;;;;;;4953075;28;20429;-65
2023/05/12 06:19:24;;;;;;;17.15;15.63;;;15.90;99.90;;;;;;4953218;28;20413;-66
2023/05/12 06:21:52;;;;;;;17.52;15.88;;;16.00;99.90;;;;;;4952985;28;20426;-65
2023/05/12 06:24:18;;;;;;;17.40;15.60;;;16.00;99.90;;;;;;4952728;28;20475;-65
2023/05/12 06:26:45;;;;;;;18.50;16.80;;;16.00;99.90;;;;;;4953993;28;20437;-66
2023/05/12 06:29:14;;;;;;;18.50;16.70;;;16.00;99.90;;;;;;4953391;29;20456;-64
2023/05/12 06:31:40;;;;;;;21.70;18.52;;;15.90;99.90;;;;;;4953793;28;20521;-64
2023/05/12 06:34:07;;;;;;;20.08;17.95;;;15.80;99.90;;;;;;4952017;28;20433;-66
2023/05/12 06:36:34;;;;;;;19.10;17.20;;;15.70;99.90;;;;;;4952448;28;20426;-65
2023/05/12 06:39:01;;;;;;;19.60;17.75;;;15.70;99.90;;;;;;4952205;28;20900;-64
2023/05/12 06:41:27;;;;;;;19.30;17.40;;;15.80;99.90;;;;;;4952510;28;20427;-64
2023/05/12 06:43:54;;;;;;;15.98;14.48;;;15.70;99.90;;;;;;4952464;28;20931;-66
2023/05/12 06:46:23;;;;;;;16.50;14.80;;;15.70;99.90;;;;;;4952608;28;20430;-65
2023/05/12 06:48:50;;;;;;;17.67;16.08;;;15.60;99.90;;;;;;4953223;28;20426;-66
2023/05/12 06:51:16;;;;;;;17.15;15.45;;;15.60;99.90;;;;;;4952447;28;20525;-65
2023/05/12 06:53:43;;;;;;;17.80;16.20;;;15.70;99.90;;;;;;4952174;28;20428;-65
2023/05/12 06:56:12;;;;;;;16.35;14.95;;;15.80;99.90;;;;;;4951860;28;20473;-65
2023/05/12 06:58:39;;;;;;;15.70;14.10;;;15.90;99.90;;;;;;4952154;28;20604;-65
2023/05/12 07:01:05;;;;;;;14.52;13.18;;;16.00;99.90;;;;;;4952706;28;20422;-64
2023/05/12 07:03:34;;;;;;;13.57;12.38;;;16.10;99.90;;;;;;4952666;28;20434;-65
2023/05/12 07:06:00;;;;;;;14.35;12.90;;;16.10;99.90;;;;;;4952014;28;20803;-66
2023/05/12 07:08:27;;;;;;;14.63;13.35;;;16.10;99.90;;;;;;4952030;28;20529;-65
2023/05/12 07:10:54;;;;;;;15.40;14.00;;;16.10;99.90;;;;;;4952171;28;20445;-64
2023/05/12 07:13:21;;;;;;;15.60;14.00;;;16.10;99.90;;;;;;4951808;28;20868;-64
2023/05/12 07:15:48;;;;;;;15.03;13.73;;;16.20;99.90;;;;;;4952799;28;20517;-66
2023/05/12 07:18:15;;;;;;;15.18;13.77;;;16.20;99.90;;;;;;4951818;29;20426;-65
2023/05/12 07:20:45;;;;;;;15.20;13.85;;;16.30;99.90;;;;;;4952174;28;20526;-65
2023/05/12 07:23:12;;;;;;;13.73;12.32;;;16.30;99.90;;;;;;4952102;28;20430;-65
2023/05/12 07:25:39;;;;;;;13.85;12.45;;;16.30;99.90;;;;;;4953052;28;20437;-65
2023/05/12 07:28:06;;;;;;;12.43;11.23;;;16.40;99.90;;;;;;4952310;28;20904;-64
2023/05/12 07:30:33;;;;;;;11.02;10.02;;;16.50;99.90;;;;;;4951566;28;20525;-65
2023/05/12 07:33:00;;;;;;;10.32;9.43;;;16.60;99.90;;;;;;4951082;28;20448;-65
2023/05/12 07:35:27;;;;;;;9.82;8.80;;;16.70;99.90;;;;;;4951478;28;20513;-65
2023/05/12 07:37:55;;;;;;;10.73;8.20;;;16.80;99.90;;;;;;4951880;28;20426;-64
2023/05/12 07:40:22;;;;;;;9.38;8.48;;;16.80;99.90;;;;;;4951511;28;20418;-64
2023/05/12 07:42:49;;;;;;;8.80;8.05;;;16.80;99.90;;;;;;4950781;28;20968;-64
2023/05/12 07:45:21;;;;;;;9.20;8.30;;;16.80;99.90;;;;;;4950536;28;20908;-64
2023/05/12 07:47:49;;;;;;;8.32;7.53;;;16.80;99.90;;;;;;4952249;28;20448;-64
2023/05/12 07:50:16;;;;;;;8.50;7.25;;;16.90;99.90;;;;;;4952015;28;20452;-64
2023/05/12 07:52:48;;;;;;;7.73;7.00;;;17.10;99.90;;;;;;4951507;29;20916;-64
2023/05/12 07:55:16;;;;;;;7.45;6.85;;;17.30;99.90;;;;;;4951197;28;20919;-64
2023/05/12 07:57:43;;;;;;;7.70;7.00;;;17.40;99.90;;;;;;4951364;28;20425;-64
2023/05/12 08:00:12;;;;;;;7.10;6.40;;;17.50;99.90;;;;;;4951250;28;20426;-64
2023/05/12 08:02:39;;;;;;;7.88;7.13;;;17.70;99.90;;;;;;4951326;28;20426;-65
2023/05/12 08:05:07;;;;;;;7.68;6.90;;;17.90;99.50;;;;;;4954264;28;20437;-64
2023/05/12 08:07:34;;;;;;;7.40;6.80;;;18.00;99.10;;;;;;4951866;29;20433;-64
2023/05/12 08:10:01;;;;;;;7.05;6.35;;;18.30;97.50;;;;;;4950541;29;20425;-64
2023/05/12 08:12:29;;;;;;;10.48;7.00;;;18.40;96.30;;;;;;4950617;28;20437;-64
2023/05/12 08:14:56;;;;;;;7.60;6.80;;;18.40;95.00;;;;;;4951601;28;20426;-66
2023/05/12 08:17:23;;;;;;;6.80;6.10;;;18.40;93.80;;;;;;4951133;28;20418;-64
2023/05/12 08:19:50;;;;;;;7.10;5.90;;;18.60;92.60;;;;;;4950895;28;20518;-64
2023/05/12 08:22:17;;;;;;;6.72;6.10;;;18.70;90.80;;;;;;4950379;28;20436;-65
2023/05/12 08:24:46;;;;;;;7.07;5.82;;;18.80;90.10;;;;;;4950472;29;20425;-64
2023/05/12 08:27:12;;;;;;;6.25;5.65;;;18.90;88.90;;;;;;4951592;28;20480;-63
2023/05/12 08:29:41;;;;;;;6.82;6.13;;;19.00;87.40;;;;;;4950777;28;20437;-63
2023/05/12 08:32:07;;;;;;;6.68;5.95;;;19.00;85.70;;;;;;4950566;28;20520;-64
2023/05/12 08:34:34;;;;;;;8.38;6.70;;;19.20;82.10;;;;;;4950455;28;20429;-65
2023/05/12 08:37:01;;;;;;;7.93;6.50;;;19.30;80.30;;;;;;4950492;28;20907;-64
2023/05/12 08:39:29;;;;;;;7.73;6.90;;;19.50;78.00;;;;;;4950024;28;21045;-64
2023/05/12 08:42:09;;;;;;;7.50;6.80;;;19.60;75.90;;;;;;4950167;28;20922;-64
2023/05/12 08:44:37;;;;;;;7.40;6.60;;;19.80;74.60;;;;;;4950532;28;20509;-64
2023/05/12 08:47:06;;;;;;;7.87;7.17;;;20.00;73.80;;;;;;4950305;28;20431;-66
2023/05/12 08:49:37;;;;;;;7.57;6.88;;;20.20;71.40;;;;;;4950443;28;20426;-65
2023/05/12 08:52:05;;;;;;;7.38;6.68;;;20.20;70.30;;;;;;4950515;28;20434;-64
2023/05/12 08:54:33;;;;;;;7.30;6.70;;;20.20;69.50;;;;;;4950519;29;20472;-65
2023/05/12 08:57:01;;;;;;;7.47;6.72;;;20.20;69.30;;;;;;4951535;28;20425;-64
2023/05/12 08:59:28;;;;;;;6.70;6.00;;;20.20;69.30;;;;;;4953717;28;20936;-64
2023/05/12 09:01:55;;;;;;;7.80;7.00;;;20.30;68.70;;;;;;4954840;28;20422;-65
2023/05/12 09:04:23;;;;;;;9.50;6.77;;;20.30;66.90;;;;;;4954328;28;20848;-64
2023/05/12 09:06:50;;;;;;;8.40;6.97;;;20.20;66.20;;;;;;4954353;28;20938;-64
2023/05/12 09:09:19;;;;;;;7.72;6.93;;;20.20;66.40;;;;;;4954388;28;20908;-64
2023/05/12 09:11:48;;;;;;;9.30;6.60;;;20.30;66.60;;;;;;4954172;28;20464;-64
2023/05/12 09:14:19;;;;;;;7.93;6.78;;;20.40;67.40;;;;;;4954260;28;20440;-64
2023/05/12 09:16:50;;;;;;;6.93;6.32;;;20.60;67.10;;;;;;4954072;28;20880;-64
2023/05/12 09:19:20;;;;;;;7.20;6.50;;;20.70;65.50;;;;;;4953887;28;20426;-65
2023/05/12 09:21:48;;;;;;;6.90;6.30;;;20.60;64.80;;;;;;4954218;28;20509;-64
2023/05/12 09:24:15;;;;;;;7.15;6.10;;;20.50;65.00;;;;;;4953814;28;20418;-65
2023/05/12 09:26:47;;;;;;;9.25;5.90;;;20.40;65.00;;;;;;4953930;29;20429;-64
2023/05/12 09:29:15;;;;;;;7.45;6.60;;;20.30;66.30;;;;;;4954025;28;20432;-65
2023/05/12 09:31:50;;;;;;;9.00;7.00;;;20.40;66.10;;;;;;4953522;28;20449;-64
2023/05/12 09:34:17;;;;;;;6.90;6.20;;;20.50;65.20;;;;;;4953498;28;20418;-64
2023/05/12 09:36:45;;;;;;;7.32;6.50;;;20.50;64.60;;;;;;4953272;28;20422;-64
2023/05/12 09:39:13;;;;;;;7.00;6.30;;;20.50;64.70;;;;;;4952914;28;20457;-64
2023/05/12 09:41:41;;;;;;;6.70;6.10;;;20.70;64.90;;;;;;4953285;28;20449;-64
2023/05/12 09:44:09;;;;;;;6.47;5.90;;;20.90;64.30;;;;;;4953300;28;20422;-64
2023/05/12 09:46:38;;;;;;;8.65;6.43;;;21.00;63.80;;;;;;4953118;28;20462;-64
2023/05/12 09:49:05;;;;;;;7.22;6.28;;;21.10;64.10;;;;;;4952805;28;20480;-65
2023/05/12 09:51:32;;;;;;;6.80;5.60;;;21.30;63.30;;;;;;4953384;28;20438;-63
2023/05/12 09:53:59;;;;;;;5.90;5.30;;;21.40;60.20;;;;;;4953288;28;20422;-65
2023/05/12 09:56:30;;;;;;;5.82;4.80;;;21.50;58.50;;;;;;4953201;28;20426;-65
2023/05/12 09:58:57;;;;;;;9.35;5.00;;;21.60;57.30;;;;;;4953103;28;20915;-64
2023/05/12 10:01:26;;;;;;;5.60;5.10;;;21.70;56.90;;;;;;4952980;28;20464;-64
2023/05/12 10:03:57;;;;;;;8.90;4.70;;;21.80;56.90;;;;;;4952912;28;20520;-64
2023/05/12 10:06:27;;;;;;;5.88;4.60;;;21.90;56.30;;;;;;4953126;28;20911;-66
2023/05/12 10:09:00;;;;;;;5.85;4.40;;;21.90;54.20;;;;;;4953140;28;20524;-64
2023/05/12 10:11:29;;;;;;;5.70;5.20;;;22.00;53.80;;;;;;4954907;28;20425;-65
2023/05/12 10:13:56;;;;;;;6.70;5.70;;;22.20;54.40;;;;;;4952691;28;20422;-63
2023/05/12 10:16:23;;;;;;;5.30;4.80;;;22.30;54.50;;;;;;4952660;28;20414;-64
2023/05/12 10:18:50;;;;;;;6.30;5.00;;;22.30;53.10;;;;;;4953374;28;20468;-64
2023/05/12 10:21:18;;;;;;;6.22;5.38;;;22.20;52.40;;;;;;4953127;28;20853;-64
2023/05/12 10:23:46;;;;;;;5.57;5.05;;;22.30;52.30;;;;;;4952778;28;20430;-64
2023/05/12 10:26:14;;;;;;;6.63;4.93;;;22.30;51.50;;;;;;4953490;28;20426;-64
2023/05/12 10:28:43;;;;;;;5.70;4.68;;;22.40;51.80;;;;;;4952941;28;20453;-64
2023/05/12 10:31:11;;;;;;;6.80;4.50;;;22.50;52.50;;;;;;4953260;28;20529;-65
2023/05/12 10:33:38;;;;;;;5.60;5.00;;;22.70;52.60;;;;;;5078790;23;20493;-61
2023/05/12 10:36:15;;;;;;;5.88;5.20;;;22.80;52.40;;;;;;5073885;28;20415;-62
2023/05/12 10:38:42;;;;;;;6.10;5.30;;;23.00;52.30;;;;;;5073732;28;20470;-62
2023/05/12 10:41:09;;;;;;;6.80;5.00;;;23.20;51.20;;;;;;5073286;28;20856;-61
2023/05/12 10:43:43;;;;;;;6.38;4.82;;;23.20;49.00;;;;;;5073403;28;20412;-60
2023/05/12 10:46:16;;;;;;;5.50;4.60;;;23.20;48.10;;;;;;5073420;28;20427;-60
2023/05/12 10:48:54;;;;;;;6.50;5.23;;;23.30;48.40;;;;;;5073571;28;20415;-67
2023/05/12 10:51:22;;;;;;;5.60;4.82;;;23.40;48.80;;;;;;5073271;28;20418;-69
2023/05/12 10:53:59;;;;;;;6.28;5.00;;;23.60;48.10;;;;;;5073391;28;20411;-63
2023/05/12 10:56:29;;;;;;;4.95;4.55;;;23.80;47.30;;;;;;5073003;28;20424;-62
2023/05/12 10:59:16;;;;;;;7.10;5.10;;;23.90;47.30;;;;;;5072597;28;20459;-62
2023/05/12 11:01:55;;;;;;;6.20;5.60;;;24.00;46.10;;;;;;5073365;28;20457;-60
2023/05/12 11:04:24;;;;;;;6.78;5.47;;;23.90;45.30;;;;;;5073011;28;20782;-61
2023/05/12 11:06:58;;;;;;;6.20;5.10;;;23.90;45.40;;;;;;5074324;28;20511;-61
2023/05/12 11:09:25;;;;;;;5.77;5.07;;;23.80;46.10;;;;;;5074633;28;20420;-62
2023/05/12 11:11:52;;;;;;;5.90;5.30;;;23.70;45.10;;;;;;5075754;28;20423;-62
2023/05/12 11:14:21;;;;;;;6.47;5.33;;;23.70;45.10;;;;;;5075065;28;20553;-60
2023/05/12 11:16:47;;;;;;;6.28;5.20;;;23.70;45.20;;;;;;5074498;28;20423;-62
2023/05/12 11:19:14;;;;;;;7.65;5.80;;;23.70;45.80;;;;;;5074249;28;20435;-60
2023/05/12 11:21:41;;;;;;;5.83;5.23;;;23.80;46.40;;;;;;5074726;28;20407;-61
2023/05/12 11:24:09;;;;;;;5.90;5.18;;;23.80;46.70;;;;;;5073671;28;20451;-63
2023/05/12 11:26:39;;;;;;;6.68;5.60;;;23.80;45.40;;;;;;5073432;28;20846;-62
2023/05/12 11:29:07;;;;;;;5.88;5.28;;;23.80;45.60;;;;;;5072796;28;20411;-62
2023/05/12 11:31:46;;;;;;;6.53;5.03;;;23.80;45.20;;;;;;5073269;28;20481;-59
2023/05/12 11:34:13;;;;;;;5.80;4.53;;;23.90;45.30;;;;;;5071874;28;20898;-62
2023/05/12 11:36:42;;;;;;;6.53;4.30;;;24.00;44.70;;;;;;5075147;28;20423;-62
2023/05/12 11:39:14;;;;;;;4.77;4.10;;;24.10;43.30;;;;;;5075348;28;20502;-60
2023/05/12 11:41:41;;;;;;;6.00;4.30;;;24.10;42.20;;;;;;5074679;28;20419;-63
2023/05/12 11:44:19;;;;;;;5.50;4.70;;;24.10;41.60;;;;;;5075638;28;20408;-62
2023/05/12 11:46:58;;;;;;;5.00;4.50;;;24.10;41.50;;;;;;5075896;28;20469;-62
2023/05/12 11:49:26;;;;;;;5.47;3.97;;;24.30;41.20;;;;;;5076296;28;20473;-62
2023/05/12 11:51:53;;;;;;;6.53;4.72;;;24.70;39.40;;;;;;5080025;28;20500;-62
2023/05/12 11:54:21;;;;;;;5.18;4.68;;;25.20;38.90;;;;;;5073037;28;20411;-62
2023/05/12 11:56:49;;;;;;;5.10;4.57;;;25.60;38.60;;;;;;5072740;28;20905;-62
2023/05/12 11:59:26;;;;;;;4.88;4.22;;;26.00;37.80;;;;;;5072216;28;20454;-62
2023/05/12 12:01:53;;;;;;;5.07;4.17;;;26.40;37.00;;;;;;5072375;28;20769;-62
2023/05/12 12:04:35;;;;;;;4.88;3.90;;;26.70;36.30;;;;;;5072202;28;20415;-62
2023/05/12 12:07:02;;;;;;;5.47;4.10;;;27.10;35.40;;;;;;5072114;28;20970;-61
2023/05/12 12:09:36;;;;;;;6.20;4.50;;;27.40;34.50;;;;;;5072165;28;20435;-62
2023/05/12 12:12:05;;;;;;;5.30;4.20;;;27.60;34.20;;;;;;5071857;28;20443;-60
2023/05/12 12:14:33;;;;;;;5.90;4.15;;;27.90;34.40;;;;;;5071373;28;20454;-61
2023/05/12 12:17:00;;;;;;;4.90;4.38;;;28.20;34.90;;;;;;5071368;28;20873;-62
2023/05/12 12:19:27;;;;;;;7.87;4.40;;;28.30;34.20;;;;;;5071945;28;20422;-63
2023/05/12 12:22:20;;;;;;;6.75;4.40;;;27.70;33.90;;;;;;5072137;28;20576;-62
2023/05/12 12:24:47;;;;;;;4.63;4.20;;;26.60;35.60;;;;;;5075977;28;20446;-62
2023/05/12 12:27:14;;;;;;;6.90;4.50;;;25.70;37.20;;;;;;5072615;28;20986;-58
2023/05/12 12:29:40;;;;;;;6.50;4.90;;;25.20;38.00;;;;;;5072557;28;20894;-62
2023/05/12 12:32:07;;;;;;;5.05;4.55;;;24.70;38.90;;;;;;5074529;28;20426;-60
2023/05/12 12:34:36;;;;;;;5.20;4.70;;;24.10;39.80;;;;;;5076715;28;20430;-62
2023/05/12 12:37:03;;;;;;;5.88;4.80;;;23.70;41.20;;;;;;5075537;28;20500;-62
2023/05/12 12:39:31;;;;;;;5.07;4.10;;;23.50;40.80;;;;;;5075950;28;20446;-61
2023/05/12 12:41:58;;;;;;;5.85;4.43;;;23.60;41.00;;;;;;5075631;28;20414;-63
2023/05/12 12:44:25;;;;;;;4.78;4.20;;;23.80;41.30;;;;;;5075486;28;20411;-62